Austin Straubel International, WI

7:41 AM CDT on October 02, 2014 (GMT -0500)
Austin Straubel International | Change Station
CLOSE
Current Station
Airport
Location: Green Bay,
Elevation: 686 ft
Nearby Weather Stations

Elev 686 ft 44.48 °N, 88.14 °W | Updated 48 minutes ago

Overcast
Overcast
58 °F
Feels Like 58 °F
N
0
Wind Variable Wind from North

Today
High -- | Low -- °F
--% Chance of Precip.
Yesterday
High -- | Low -- °F
Precip. -- in
6:51 AM 6:31 PM
First Quarter, 58% visible
Pressure 29.87 in
Visibility 6.0 miles
Clouds Overcast 3900 ft
Dew Point 57 °F
Humidity 97%
Rainfall 0.15 in
Snow Depth Not available.
UV 0 out of 12
Pollen .40 out of 12
PM2.5 Good
Flu Activity Not available.
METAR KGRB 021153Z 00000KT 6SM BR OVC039 14/14 A2986 RMK AO2 SLP113 60002 70027 T01440139 10144 20133 55000

More Conditions Fewer Conditions

Pressure 29.87 in
Visibility 6.0 miles
Clouds Overcast 3900 ft
Dew Point 57 °F
Humidity 97%
Rainfall 0.15 in
Snow Depth Not available.
UV 0 out of 12
Pollen .40 out of 12
PM2.5 Good
Flu Activity Not available.
METAR KGRB 021153Z 00000KT 6SM BR OVC039 14/14 A2986 RMK AO2 SLP113 60002 70027 T01440139 10144 20133 55000

More Conditions Fewer Conditions

10-Day Weather Forecast

Almanac

Astronomy

Oct. 02, 2014 Rise Set
Actual Time 6:51 AM CDT 6:31 PM CDT
Civil Twilight 6:22 AM CDT 7:00 PM CDT
Nautical Twilight 5:48 AM CDT 7:33 PM CDT
Astronomical Twilight 5:14 AM CDT 8:08 PM CDT
Moon 2:49 PM CDT No Moon Set
Length of Visible Light 12h 37m
Length of Day
11h 39m
Tomorrow will be 3m 3s shorter.
First Quarter, 58% of the Moon is Illuminated
Today
First Quarter
Oct 8
Full
Oct 15
Last Quarter
Oct 23
New
Oct 30
First Quarter

Today's Extremes

State Highs State Lows

Community

WunderPhotos

Upload Photos

1,758,226 photos uploaded!

WunderBlogs® & News

Nearby

Air Quality

  Air Quality AQ Index Pollutant
Yesterday Good
OZONE
Yesterday Good
PM2.5
Current Good
PM2.5
Thursday Good
OZONE
Thursday Good
PM2.5
Friday Good
OZONE
Friday Good
PM2.5
Saturday Good
OZONE
Saturday Good
PM2.5
Sunday Good
OZONE
Sunday Good
PM2.5

Snow Depth

Station Depth Elevation
No new snow has been reported.

Earthquake Activity

City Distance Mag. Time & Date
No recent earthquake activity has been reported nearby.
Minimum magnitude displayed is 2.5.

Coastal Water Temperatures

Place Temperature
Menominee, MI 61.0 °F

Nearby Weather Stations